Abbott, NM

10:32 PM MDT on July 24, 2014 (GMT -0600)
Stokes (KTAD) Elev 5761 ft | 37.26 °N, 104.33 °W | Change Station

Current weather conditions updated 38 minutes ago

Clear
Clear
82 °F
Feels Like 82 °F
N
6
Wind Variable Wind from SSW

Tomorrow is forecast to be nearly the same temperature as today.

Today
High -- | Low -- °F
--% Chance of Precip.
Yesterday
High -- | Low -- °F
Precip. -- in
5:57 AM 8:09 PM
Waning Crescent, 3% visible
Pressure 29.81 in
Visibility 10.0 miles
Clouds Clear
Dew Point 43 °F
Humidity 25%
Rainfall 0.00 in
Snow Depth Not available.
UV 0 out of 12
Pollen 7.40 out of 12
Air Quality Not available.
Flu Activity Not available.
METAR KTAD 250354Z AUTO 20005KT 10SM CLR 28/06 A3012 RMK AO2 SLP093 T02780061

More Conditions Fewer Conditions

Pressure 29.81 in
Visibility 10.0 miles
Clouds Clear
Dew Point 43 °F
Humidity 25%
Rainfall 0.00 in
Snow Depth Not available.
UV 0 out of 12
Pollen 7.40 out of 12
Air Quality Not available.
Flu Activity Not available.
METAR KTAD 250354Z AUTO 20005KT 10SM CLR 28/06 A3012 RMK AO2 SLP093 T02780061

More Conditions Fewer Conditions

10-Day Weather Forecast

Almanac

Astronomy

Jul. 24, 2014 Rise Set
Actual Time 5:57 AM MDT 8:09 PM MDT
Civil Twilight 5:28 AM MDT 8:38 PM MDT
Nautical Twilight 4:53 AM MDT 9:14 PM MDT
Astronomical Twilight 4:14 AM MDT 9:52 PM MDT
Moon 4:07 AM MDT (7/24) 6:27 PM MDT (7/24)
Length of Visible Light 15h 09m
Length of Day
14h 11m
Tomorrow will be 1m 31s shorter.
Waning Crescent, 3% of the Moon is Illuminated
Jul 25
Waning Crescent
Jul 26
New
Aug 3
First Quarter
Aug 10
Full
Aug 17
Last Quarter

Today's Extremes

State Highs State Lows

Community

WunderPhotos

Upload Photos

1,737,244 photos uploaded!

Nearby

Snow Depth

Station Depth Elevation
Tolby 0 in 10180 ft
Red River Pass #2 0 in 9850 ft
North Costilla 0 in 10600 ft
Gallegos Peak 0 in 9800 ft
Wesner Springs 1 in 11120 ft

Earthquake Activity

City Distance Mag. Time & Date
No recent earthquake activity has been reported nearby.
Minimum magnitude displayed is 2.5.

Coastal Water Temperatures

Place Temperature
No Stations Reporting

Nearby Weather Stations

There are no personal weather stations in this area.